Kouros — A8QD7 — position and weather

sailwx.info

Track history (hours):
 
Tides and Currents Weather Stations Pressure Air Temp Water Temp Dewpoint Dewpoint Depression Visibility Wind Speed Wind Dir Waves Ship Positions

Kouros

Last reported at 2018-Jul-15 01:27 UTC. Time now 2018-Jul-19 23:07 UTC.
Position N 27°06' W 115°53'.

Length 183 m; draft 11 m.

Type: Tanker. MMSI: 636013897.

Date/timePositionNaut miles runAvg speedWind from/ knotsBaromVisibWave heightAir tempDewpointWater temp
2018-Jul-15 01:27N 27°06' W 115°53'32013.1
2018-Jul-14 01:02N 32°20' W 117°05'0 6.2
2018-Jul-14 00:59N 32°20' W 117°05'0 0.0
2018-Jul-13 07:01N 32°21' W 117°06'0 0.1
2018-Jul-13 06:31N 32°21' W 117°06'0 0.0
2018-Jul-13 06:20N 32°21' W 117°06'0 0.6
2018-Jul-13 05:57N 32°20' W 117°06'1 3.3
2018-Jul-13 05:30N 32°20' W 117°08'710.5
2018-Jul-13 04:49N 32°15' W 117°14'412.9
2018-Jul-13 04:29N 32°12' W 117°17'613.2
2018-Jul-13 04:00N 32°07' W 117°22'713.2
2018-Jul-13 03:28N 32°02' W 117°28'613.1
2018-Jul-13 03:00N 31°58' W 117°33'713.4
2018-Jul-13 02:30N 31°53' W 117°38'713.7
2018-Jul-13 02:00N 31°48' W 117°44'713.7
2018-Jul-13 01:30N 31°43' W 117°50'713.6
2018-Jul-13 01:00N 31°38' W 117°55'1313.6
2018-Jul-13 00:04N 31°29' W 118°06'113.5
2018-Jul-13 00:01N 31°29' W 118°06'713.4
2018-Jul-12 23:30N 31°24' W 118°12'813.4
2018-Jul-12 22:53N 31°18' W 118°19'913.3
2018-Jul-12 22:14N 31°12' W 118°26'513.3
2018-Jul-12 21:53N 31°09' W 118°30'512.8
2018-Jul-12 21:28N 31°05' W 118°34'713.1
2018-Jul-12 20:57N 31°03' W 118°42'613.0
2018-Jul-12 20:29N 31°02' W 118°49'1412.9
2018-Jul-12 19:23N 30°59' W 119°05'612.8
2018-Jul-12 18:56N 30°58' W 119°12'1412.8
2018-Jul-12 17:50N 30°55' W 119°28'412.8
2018-Jul-12 17:30N 30°54' W 119°33'1012.7
2018-Jul-12 16:42N 30°52' W 119°44'312.5
2018-Jul-12 16:26N 30°51' W 119°48'512.4
2018-Jul-12 16:01N 30°50' W 119°54'712.5
2018-Jul-12 15:29N 30°49' W 120°02'612.2
2018-Jul-12 15:00N 30°47' W 120°08'1012.4
2018-Jul-12 14:13N 30°45' W 120°19'312.4
2018-Jul-12 14:00N 30°44' W 120°22'612.6
2018-Jul-12 13:30N 30°43' W 120°29'612.6
2018-Jul-12 13:01N 30°42' W 120°36'612.2
2018-Jul-12 12:30N 30°40' W 120°43'712.3
2018-Jul-12 11:57N 30°39' W 120°51'512.3
2018-Jul-12 11:30N 30°38' W 120°57'612.3
2018-Jul-12 11:00N 30°36' W 121°04'612.3
2018-Jul-12 10:30N 30°35' W 121°11'912.4
2018-Jul-12 09:46N 30°33' W 121°22'312.2
2018-Jul-12 09:30N 30°32' W 121°26'612.1
2018-Jul-12 09:01N 30°31' W 121°32'711.9
2018-Jul-12 08:25N 30°30' W 121°40'512.0
2018-Jul-12 08:00N 30°28' W 121°46'911.0
2018-Jul-12 07:08N 30°30' W 121°57'412.6
2018-Jul-12 06:51N 30°33' W 121°60'412.5
2018-Jul-12 06:30N 30°36' W 122°03'812.4
2018-Jul-12 05:52N 30°41' W 122°10'412.3
2018-Jul-12 05:30N 30°44' W 122°14'1312.3
2018-Jul-12 04:24N 30°54' W 122°25'712.3
2018-Jul-12 03:52N 30°58' W 122°31'1812.3
2018-Jul-12 02:26N 31°10' W 122°45'512.5
2018-Jul-12 02:00N 31°14' W 122°50'712.5
2018-Jul-12 01:26N 31°19' W 122°56'612.5
2018-Jul-12 00:57N 31°23' W 123°01'612.4
2018-Jul-12 00:29N 31°27' W 123°06'1212.4
2018-Jul-11 23:33N 31°35' W 123°16'012.5
2018-Jul-11 23:30N 31°36' W 123°16'13912.3
2018-Jul-11 12:13N 33°27' W 124°55'1412.4
2018-Jul-11 11:07N 33°38' W 125°04'512.7
2018-Jul-11 10:43N 33°43' W 125°08'312.7
2018-Jul-11 10:30N 33°45' W 125°09'612.8
2018-Jul-11 10:00N 33°50' W 125°14'612.9
2018-Jul-11 09:31N 33°56' W 125°18'612.7
2018-Jul-11 09:00N 34°01' W 125°22'612.7
2018-Jul-11 08:30N 34°06' W 125°26'712.8
2018-Jul-11 07:58N 34°12' W 125°31'712.8
2018-Jul-11 07:26N 34°18' W 125°35'612.7
2018-Jul-11 06:58N 34°23' W 125°39'  
2018-Jul-08 04:57N 48°14' W 125°19'1012.8
2018-Jul-08 04:11N 48°22' W 125°10'312.3
2018-Jul-08 03:59N 48°24' W 125°08'612.2
2018-Jul-08 03:30N 48°29' W 125°03'510.8
2018-Jul-08 03:00N 48°31' W 124°56'612.9
2018-Jul-08 02:30N 48°31' W 124°46'713.3
2018-Jul-08 02:00N 48°29' W 124°37'713.5
2018-Jul-08 01:30N 48°26' W 124°27'713.1
2018-Jul-08 01:00N 48°24' W 124°18'713.1
2018-Jul-08 00:30N 48°21' W 124°09'713.2
2018-Jul-08 00:00N 48°19' W 123°60'813.2
2018-Jul-07 23:23N 48°17' W 123°48'2811.2
2018-Jul-07 20:54N 48°17' W 123°06'613.5
2018-Jul-07 20:27N 48°20' W 122°59'612.5
2018-Jul-07 20:00N 48°23' W 122°52'510.6
2018-Jul-07 19:30N 48°27' W 122°46'510.4
2018-Jul-07 19:00N 48°31' W 122°42'4 7.5
2018-Jul-07 18:30N 48°32' W 122°36'2 3.0
2018-Jul-07 18:00N 48°31' W 122°34'0 0.2
2018-Jul-07 17:30N 48°30' W 122°34'0 0.0
2018-Jul-07 16:59N 48°30' W 122°34'0 0.0
2018-Jul-07 16:29N 48°30' W 122°34'0 0.0
2018-Jul-07 15:59N 48°30' W 122°34'0 0.0
2018-Jul-07 15:29N 48°30' W 122°34'0 0.0
2018-Jul-07 14:59N 48°30' W 122°34'0 0.0
2018-Jul-07 14:29N 48°30' W 122°34'0 0.0
2018-Jul-07 13:59N 48°30' W 122°34'0 0.0
2018-Jul-07 13:29N 48°30' W 122°34'0 0.0
2018-Jul-07 11:17N 48°30' W 122°34'0 0.0
2018-Jul-07 10:59N 48°30' W 122°34'0 0.0
2018-Jul-07 10:29N 48°30' W 122°34'0 0.0
2018-Jul-07 09:59N 48°30' W 122°34'0 0.0
2018-Jul-07 09:29N 48°30' W 122°34'0 0.0
2018-Jul-07 08:59N 48°30' W 122°34'0 0.0
2018-Jul-07 08:29N 48°30' W 122°34'0 0.0
2018-Jul-07 07:59N 48°30' W 122°34'0 0.0
2018-Jul-07 07:17N 48°30' W 122°34'0 0.0
2018-Jul-07 06:59N 48°30' W 122°34'0 0.0
2018-Jul-07 06:23N 48°30' W 122°34'0 0.0
2018-Jul-07 05:59N 48°30' W 122°34'0 0.0
2018-Jul-07 05:29N 48°30' W 122°34'0 0.0
2018-Jul-07 04:53N 48°30' W 122°34'0 0.0
2018-Jul-07 04:11N 48°30' W 122°34'0 0.0
2018-Jul-07 03:59N 48°30' W 122°34'0 0.0
2018-Jul-07 03:29N 48°30' W 122°34'0 0.0
2018-Jul-07 02:59N 48°30' W 122°34'0 0.0
2018-Jul-07 02:29N 48°30' W 122°34'0 0.0
2018-Jul-07 01:59N 48°30' W 122°34'0 0.0
2018-Jul-07 01:29N 48°30' W 122°34'0 0.0
2018-Jul-07 00:53N 48°30' W 122°34'0 0.0
2018-Jul-07 00:23N 48°30' W 122°34'0 0.0
2018-Jul-06 23:53N 48°30' W 122°34'0 0.0
2018-Jul-06 23:29N 48°30' W 122°34'0 0.0
2018-Jul-06 22:59N 48°30' W 122°34'0 0.0
2018-Jul-06 22:29N 48°30' W 122°34'0 0.0
2018-Jul-06 21:59N 48°30' W 122°34'0 0.0
2018-Jul-06 21:23N 48°30' W 122°34'0 0.0
2018-Jul-06 20:59N 48°30' W 122°34'0 0.0
2018-Jul-06 20:23N 48°30' W 122°34'0 0.0
2018-Jul-06 19:59N 48°31' W 122°34'0 0.0
2018-Jul-06 19:23N 48°30' W 122°34'0 0.0
2018-Jul-06 18:53N 48°30' W 122°34'0 0.0
2018-Jul-06 18:23N 48°30' W 122°34'0 0.0
2018-Jul-06 17:53N 48°30' W 122°34'0 0.0
2018-Jul-06 17:29N 48°30' W 122°34'0 0.0
2018-Jul-06 16:59N 48°30' W 122°34'0 0.0
2018-Jul-06 16:23N 48°30' W 122°34'0 0.0
2018-Jul-06 15:59N 48°30' W 122°34'0 0.0
2018-Jul-06 15:29N 48°30' W 122°34'0 0.0
2018-Jul-06 14:53N 48°30' W 122°34'0 0.0
2018-Jul-06 14:29N 48°30' W 122°34'0 0.0
2018-Jul-06 13:53N 48°30' W 122°34'0 0.0
2018-Jul-06 13:29N 48°30' W 122°34'0 0.0
2018-Jul-06 12:59N 48°30' W 122°34'0 0.0
2018-Jul-06 12:29N 48°30' W 122°34'0 0.0
2018-Jul-06 11:59N 48°30' W 122°34'0 0.0
2018-Jul-06 11:29N 48°30' W 122°34'0 0.0
2018-Jul-06 10:53N 48°30' W 122°34'0 0.0
2018-Jul-06 10:29N 48°30' W 122°34'0 0.0
2018-Jul-06 09:59N 48°30' W 122°34'0 0.0
2018-Jul-06 09:29N 48°30' W 122°34'0 0.1
2018-Jul-06 08:59N 48°31' W 122°34'0 0.1
2018-Jul-06 08:23N 48°30' W 122°34'0 0.0
2018-Jul-06 07:59N 48°30' W 122°34'0 0.0
2018-Jul-06 07:29N 48°31' W 122°34'0 0.0
2018-Jul-06 06:53N 48°30' W 122°34'0 0.0
2018-Jul-06 06:29N 48°30' W 122°34'0 0.0
2018-Jul-06 05:59N 48°30' W 122°34'0 0.0
2018-Jul-06 05:29N 48°31' W 122°34'0 0.0
2018-Jul-06 04:59N 48°30' W 122°34'0 0.0
2018-Jul-06 04:29N 48°30' W 122°34'0 0.0
2018-Jul-06 03:59N 48°30' W 122°34'0 0.0
2018-Jul-06 03:29N 48°30' W 122°34'0 0.0
2018-Jul-06 02:59N 48°30' W 122°34'0 0.0
2018-Jul-06 02:29N 48°30' W 122°34'0 0.0
2018-Jul-06 01:59N 48°30' W 122°34'0 0.0
2018-Jul-06 01:29N 48°30' W 122°34'0 0.0
2018-Jul-06 00:53N 48°30' W 122°34'0 0.0
2018-Jul-06 00:29N 48°30' W 122°34'0 0.0
2018-Jul-05 23:59N 48°30' W 122°34'0 0.0
2018-Jul-05 23:05N 48°30' W 122°34'0 0.0
2018-Jul-05 22:59N 48°30' W 122°34'0 0.0
2018-Jul-05 22:29N 48°30' W 122°34'0 0.0
2018-Jul-05 21:59N 48°30' W 122°34'0 0.0
2018-Jul-05 21:23N 48°30' W 122°34'0 0.0
2018-Jul-05 20:59N 48°31' W 122°34'0 0.0
2018-Jul-05 20:29N 48°30' W 122°34'0 0.0
2018-Jul-05 19:59N 48°30' W 122°34'0 0.0
2018-Jul-05 19:29N 48°30' W 122°34'0 0.0
2018-Jul-05 18:59N 48°30' W 122°34'0 0.0
2018-Jul-05 18:29N 48°30' W 122°34'0 0.0
2018-Jul-05 17:53N 48°30' W 122°34'0 0.0
2018-Jul-05 17:29N 48°30' W 122°34'0 0.0
2018-Jul-05 16:59N 48°30' W 122°34'0 0.0
2018-Jul-05 16:29N 48°31' W 122°34'0 0.0
2018-Jul-05 15:59N 48°30' W 122°34'0 0.0
2018-Jul-05 15:29N 48°30' W 122°34'0 0.0
2018-Jul-05 14:59N 48°30' W 122°34'0 0.0
2018-Jul-05 13:59N 48°30' W 122°34'0 0.0
2018-Jul-05 13:29N 48°30' W 122°34'0 0.0
2018-Jul-05 12:59N 48°30' W 122°34'0 0.0
2018-Jul-05 12:29N 48°30' W 122°34'0 0.0
2018-Jul-05 11:53N 48°30' W 122°34'0 0.0
2018-Jul-05 11:29N 48°30' W 122°34'0 0.0
2018-Jul-05 10:59N 48°30' W 122°34'0 0.0
2018-Jul-05 10:29N 48°30' W 122°34'0 0.0
2018-Jul-05 09:59N 48°30' W 122°34'0 0.0
2018-Jul-05 09:29N 48°30' W 122°34'0 0.0
2018-Jul-05 08:59N 48°30' W 122°34'0 0.0
2018-Jul-05 08:29N 48°30' W 122°34'0 0.0
2018-Jul-05 07:59N 48°30' W 122°34'0 0.0
2018-Jul-05 07:29N 48°30' W 122°34'0 0.0
2018-Jul-05 06:59N 48°30' W 122°34'0 0.0
2018-Jul-05 06:29N 48°30' W 122°34'0 0.0
2018-Jul-05 05:59N 48°30' W 122°34'0 0.0
2018-Jul-05 05:29N 48°30' W 122°34'0 0.0
2018-Jul-05 04:59N 48°30' W 122°34'0 0.0
2018-Jul-05 04:29N 48°30' W 122°34'0 0.0
2018-Jul-05 03:59N 48°30' W 122°34'0 0.0
2018-Jul-05 03:29N 48°30' W 122°34'0 0.0
2018-Jul-05 02:59N 48°30' W 122°34'0 0.0
2018-Jul-05 02:23N 48°30' W 122°34'0 0.0
2018-Jul-05 01:59N 48°30' W 122°34'0 0.0
2018-Jul-05 01:29N 48°30' W 122°34'  
Track history (hours):
 
Tides and Currents Weather Stations Pressure Air Temp Water Temp Dewpoint Dewpoint Depression Visibility Wind Speed Wind Dir Waves Ship Positions

Kouros

Last reported at 2018-Jul-15 01:27 UTC. Time now 2018-Jul-19 23:07 UTC.
Position N 27°06' W 115°53'.

Length 183 m; draft 11 m.

Type: Tanker. MMSI: 636013897.

Date/timePositionNaut miles runAvg speedWind from/ knotsBaromVisibWave heightAir tempDewpointWater temp
2018-Jul-15 01:27N 27°06' W 115°53'32013.1
2018-Jul-14 01:02N 32°20' W 117°05'0 6.2
2018-Jul-14 00:59N 32°20' W 117°05'0 0.0
2018-Jul-13 07:01N 32°21' W 117°06'0 0.1
2018-Jul-13 06:31N 32°21' W 117°06'0 0.0
2018-Jul-13 06:20N 32°21' W 117°06'0 0.6
2018-Jul-13 05:57N 32°20' W 117°06'1 3.3
2018-Jul-13 05:30N 32°20' W 117°08'710.5
2018-Jul-13 04:49N 32°15' W 117°14'412.9
2018-Jul-13 04:29N 32°12' W 117°17'613.2
2018-Jul-13 04:00N 32°07' W 117°22'713.2
2018-Jul-13 03:28N 32°02' W 117°28'613.1
2018-Jul-13 03:00N 31°58' W 117°33'713.4
2018-Jul-13 02:30N 31°53' W 117°38'713.7
2018-Jul-13 02:00N 31°48' W 117°44'713.7
2018-Jul-13 01:30N 31°43' W 117°50'713.6
2018-Jul-13 01:00N 31°38' W 117°55'1313.6
2018-Jul-13 00:04N 31°29' W 118°06'113.5
2018-Jul-13 00:01N 31°29' W 118°06'713.4
2018-Jul-12 23:30N 31°24' W 118°12'813.4
2018-Jul-12 22:53N 31°18' W 118°19'913.3
2018-Jul-12 22:14N 31°12' W 118°26'513.3
2018-Jul-12 21:53N 31°09' W 118°30'512.8
2018-Jul-12 21:28N 31°05' W 118°34'713.1
2018-Jul-12 20:57N 31°03' W 118°42'613.0
2018-Jul-12 20:29N 31°02' W 118°49'1412.9
2018-Jul-12 19:23N 30°59' W 119°05'612.8
2018-Jul-12 18:56N 30°58' W 119°12'1412.8
2018-Jul-12 17:50N 30°55' W 119°28'412.8
2018-Jul-12 17:30N 30°54' W 119°33'1012.7
2018-Jul-12 16:42N 30°52' W 119°44'312.5
2018-Jul-12 16:26N 30°51' W 119°48'512.4
2018-Jul-12 16:01N 30°50' W 119°54'712.5
2018-Jul-12 15:29N 30°49' W 120°02'612.2
2018-Jul-12 15:00N 30°47' W 120°08'1012.4
2018-Jul-12 14:13N 30°45' W 120°19'312.4
2018-Jul-12 14:00N 30°44' W 120°22'612.6
2018-Jul-12 13:30N 30°43' W 120°29'612.6
2018-Jul-12 13:01N 30°42' W 120°36'612.2
2018-Jul-12 12:30N 30°40' W 120°43'712.3
2018-Jul-12 11:57N 30°39' W 120°51'512.3
2018-Jul-12 11:30N 30°38' W 120°57'612.3
2018-Jul-12 11:00N 30°36' W 121°04'612.3
2018-Jul-12 10:30N 30°35' W 121°11'912.4
2018-Jul-12 09:46N 30°33' W 121°22'312.2
2018-Jul-12 09:30N 30°32' W 121°26'612.1
2018-Jul-12 09:01N 30°31' W 121°32'711.9
2018-Jul-12 08:25N 30°30' W 121°40'512.0
2018-Jul-12 08:00N 30°28' W 121°46'911.0
2018-Jul-12 07:08N 30°30' W 121°57'412.6
2018-Jul-12 06:51N 30°33' W 121°60'412.5
2018-Jul-12 06:30N 30°36' W 122°03'812.4
2018-Jul-12 05:52N 30°41' W 122°10'412.3
2018-Jul-12 05:30N 30°44' W 122°14'1312.3
2018-Jul-12 04:24N 30°54' W 122°25'712.3
2018-Jul-12 03:52N 30°58' W 122°31'1812.3
2018-Jul-12 02:26N 31°10' W 122°45'512.5
2018-Jul-12 02:00N 31°14' W 122°50'712.5
2018-Jul-12 01:26N 31°19' W 122°56'612.5
2018-Jul-12 00:57N 31°23' W 123°01'612.4
2018-Jul-12 00:29N 31°27' W 123°06'1212.4
2018-Jul-11 23:33N 31°35' W 123°16'012.5
2018-Jul-11 23:30N 31°36' W 123°16'13912.3
2018-Jul-11 12:13N 33°27' W 124°55'1412.4
2018-Jul-11 11:07N 33°38' W 125°04'512.7
2018-Jul-11 10:43N 33°43' W 125°08'312.7
2018-Jul-11 10:30N 33°45' W 125°09'612.8
2018-Jul-11 10:00N 33°50' W 125°14'612.9
2018-Jul-11 09:31N 33°56' W 125°18'612.7
2018-Jul-11 09:00N 34°01' W 125°22'612.7
2018-Jul-11 08:30N 34°06' W 125°26'712.8
2018-Jul-11 07:58N 34°12' W 125°31'712.8
2018-Jul-11 07:26N 34°18' W 125°35'612.7
2018-Jul-11 06:58N 34°23' W 125°39'  
2018-Jul-08 04:57N 48°14' W 125°19'1012.8
2018-Jul-08 04:11N 48°22' W 125°10'312.3
2018-Jul-08 03:59N 48°24' W 125°08'612.2
2018-Jul-08 03:30N 48°29' W 125°03'510.8
2018-Jul-08 03:00N 48°31' W 124°56'612.9
2018-Jul-08 02:30N 48°31' W 124°46'713.3
2018-Jul-08 02:00N 48°29' W 124°37'713.5
2018-Jul-08 01:30N 48°26' W 124°27'713.1
2018-Jul-08 01:00N 48°24' W 124°18'713.1
2018-Jul-08 00:30N 48°21' W 124°09'713.2
2018-Jul-08 00:00N 48°19' W 123°60'813.2
2018-Jul-07 23:23N 48°17' W 123°48'2811.2
2018-Jul-07 20:54N 48°17' W 123°06'613.5
2018-Jul-07 20:27N 48°20' W 122°59'612.5
2018-Jul-07 20:00N 48°23' W 122°52'510.6
2018-Jul-07 19:30N 48°27' W 122°46'510.4
2018-Jul-07 19:00N 48°31' W 122°42'4 7.5
2018-Jul-07 18:30N 48°32' W 122°36'2 3.0
2018-Jul-07 18:00N 48°31' W 122°34'0 0.2
2018-Jul-07 17:30N 48°30' W 122°34'0 0.0
2018-Jul-07 16:59N 48°30' W 122°34'0 0.0
2018-Jul-07 16:29N 48°30' W 122°34'0 0.0
2018-Jul-07 15:59N 48°30' W 122°34'0 0.0
2018-Jul-07 15:29N 48°30' W 122°34'0 0.0
2018-Jul-07 14:59N 48°30' W 122°34'0 0.0
2018-Jul-07 14:29N 48°30' W 122°34'0 0.0
2018-Jul-07 13:59N 48°30' W 122°34'0 0.0
2018-Jul-07 13:29N 48°30' W 122°34'0 0.0
2018-Jul-07 11:17N 48°30' W 122°34'0 0.0
2018-Jul-07 10:59N 48°30' W 122°34'0 0.0
2018-Jul-07 10:29N 48°30' W 122°34'0 0.0
2018-Jul-07 09:59N 48°30' W 122°34'0 0.0
2018-Jul-07 09:29N 48°30' W 122°34'0 0.0
2018-Jul-07 08:59N 48°30' W 122°34'0 0.0
2018-Jul-07 08:29N 48°30' W 122°34'0 0.0
2018-Jul-07 07:59N 48°30' W 122°34'0 0.0
2018-Jul-07 07:17N 48°30' W 122°34'0 0.0
2018-Jul-07 06:59N 48°30' W 122°34'0 0.0
2018-Jul-07 06:23N 48°30' W 122°34'0 0.0
2018-Jul-07 05:59N 48°30' W 122°34'0 0.0
2018-Jul-07 05:29N 48°30' W 122°34'0 0.0
2018-Jul-07 04:53N 48°30' W 122°34'0 0.0
2018-Jul-07 04:11N 48°30' W 122°34'0 0.0
2018-Jul-07 03:59N 48°30' W 122°34'0 0.0
2018-Jul-07 03:29N 48°30' W 122°34'0 0.0
2018-Jul-07 02:59N 48°30' W 122°34'0 0.0
2018-Jul-07 02:29N 48°30' W 122°34'0 0.0
2018-Jul-07 01:59N 48°30' W 122°34'0 0.0
2018-Jul-07 01:29N 48°30' W 122°34'0 0.0
2018-Jul-07 00:53N 48°30' W 122°34'0 0.0
2018-Jul-07 00:23N 48°30' W 122°34'0 0.0
2018-Jul-06 23:53N 48°30' W 122°34'0 0.0
2018-Jul-06 23:29N 48°30' W 122°34'0 0.0
2018-Jul-06 22:59N 48°30' W 122°34'0 0.0
2018-Jul-06 22:29N 48°30' W 122°34'0 0.0
2018-Jul-06 21:59N 48°30' W 122°34'0 0.0
2018-Jul-06 21:23N 48°30' W 122°34'0 0.0
2018-Jul-06 20:59N 48°30' W 122°34'0 0.0
2018-Jul-06 20:23N 48°30' W 122°34'0 0.0
2018-Jul-06 19:59N 48°31' W 122°34'0 0.0
2018-Jul-06 19:23N 48°30' W 122°34'0 0.0
2018-Jul-06 18:53N 48°30' W 122°34'0 0.0
2018-Jul-06 18:23N 48°30' W 122°34'0 0.0
2018-Jul-06 17:53N 48°30' W 122°34'0 0.0
2018-Jul-06 17:29N 48°30' W 122°34'0 0.0
2018-Jul-06 16:59N 48°30' W 122°34'0 0.0
2018-Jul-06 16:23N 48°30' W 122°34'0 0.0
2018-Jul-06 15:59N 48°30' W 122°34'0 0.0
2018-Jul-06 15:29N 48°30' W 122°34'0 0.0
2018-Jul-06 14:53N 48°30' W 122°34'0 0.0
2018-Jul-06 14:29N 48°30' W 122°34'0 0.0
2018-Jul-06 13:53N 48°30' W 122°34'0 0.0
2018-Jul-06 13:29N 48°30' W 122°34'0 0.0
2018-Jul-06 12:59N 48°30' W 122°34'0 0.0
2018-Jul-06 12:29N 48°30' W 122°34'0 0.0
2018-Jul-06 11:59N 48°30' W 122°34'0 0.0
2018-Jul-06 11:29N 48°30' W 122°34'0 0.0
2018-Jul-06 10:53N 48°30' W 122°34'0 0.0
2018-Jul-06 10:29N 48°30' W 122°34'0 0.0
2018-Jul-06 09:59N 48°30' W 122°34'0 0.0
2018-Jul-06 09:29N 48°30' W 122°34'0 0.1
2018-Jul-06 08:59N 48°31' W 122°34'0 0.1
2018-Jul-06 08:23N 48°30' W 122°34'0 0.0
2018-Jul-06 07:59N 48°30' W 122°34'0 0.0
2018-Jul-06 07:29N 48°31' W 122°34'0 0.0
2018-Jul-06 06:53N 48°30' W 122°34'0 0.0
2018-Jul-06 06:29N 48°30' W 122°34'0 0.0
2018-Jul-06 05:59N 48°30' W 122°34'0 0.0
2018-Jul-06 05:29N 48°31' W 122°34'0 0.0
2018-Jul-06 04:59N 48°30' W 122°34'0 0.0
2018-Jul-06 04:29N 48°30' W 122°34'0 0.0
2018-Jul-06 03:59N 48°30' W 122°34'0 0.0
2018-Jul-06 03:29N 48°30' W 122°34'0 0.0
2018-Jul-06 02:59N 48°30' W 122°34'0 0.0
2018-Jul-06 02:29N 48°30' W 122°34'0 0.0
2018-Jul-06 01:59N 48°30' W 122°34'0 0.0
2018-Jul-06 01:29N 48°30' W 122°34'0 0.0
2018-Jul-06 00:53N 48°30' W 122°34'0 0.0
2018-Jul-06 00:29N 48°30' W 122°34'0 0.0
2018-Jul-05 23:59N 48°30' W 122°34'0 0.0
2018-Jul-05 23:05N 48°30' W 122°34'0 0.0
2018-Jul-05 22:59N 48°30' W 122°34'0 0.0
2018-Jul-05 22:29N 48°30' W 122°34'0 0.0
2018-Jul-05 21:59N 48°30' W 122°34'0 0.0
2018-Jul-05 21:23N 48°30' W 122°34'0 0.0
2018-Jul-05 20:59N 48°31' W 122°34'0 0.0
2018-Jul-05 20:29N 48°30' W 122°34'0 0.0
2018-Jul-05 19:59N 48°30' W 122°34'0 0.0
2018-Jul-05 19:29N 48°30' W 122°34'0 0.0
2018-Jul-05 18:59N 48°30' W 122°34'0 0.0
2018-Jul-05 18:29N 48°30' W 122°34'0 0.0
2018-Jul-05 17:53N 48°30' W 122°34'0 0.0
2018-Jul-05 17:29N 48°30' W 122°34'0 0.0
2018-Jul-05 16:59N 48°30' W 122°34'0 0.0
2018-Jul-05 16:29N 48°31' W 122°34'0 0.0
2018-Jul-05 15:59N 48°30' W 122°34'0 0.0
2018-Jul-05 15:29N 48°30' W 122°34'0 0.0
2018-Jul-05 14:59N 48°30' W 122°34'0 0.0
2018-Jul-05 13:59N 48°30' W 122°34'0 0.0
2018-Jul-05 13:29N 48°30' W 122°34'0 0.0
2018-Jul-05 12:59N 48°30' W 122°34'0 0.0
2018-Jul-05 12:29N 48°30' W 122°34'0 0.0
2018-Jul-05 11:53N 48°30' W 122°34'0 0.0
2018-Jul-05 11:29N 48°30' W 122°34'0 0.0
2018-Jul-05 10:59N 48°30' W 122°34'0 0.0
2018-Jul-05 10:29N 48°30' W 122°34'0 0.0
2018-Jul-05 09:59N 48°30' W 122°34'0 0.0
2018-Jul-05 09:29N 48°30' W 122°34'0 0.0
2018-Jul-05 08:59N 48°30' W 122°34'0 0.0
2018-Jul-05 08:29N 48°30' W 122°34'0 0.0
2018-Jul-05 07:59N 48°30' W 122°34'0 0.0
2018-Jul-05 07:29N 48°30' W 122°34'0 0.0
2018-Jul-05 06:59N 48°30' W 122°34'0 0.0
2018-Jul-05 06:29N 48°30' W 122°34'0 0.0
2018-Jul-05 05:59N 48°30' W 122°34'0 0.0
2018-Jul-05 05:29N 48°30' W 122°34'0 0.0
2018-Jul-05 04:59N 48°30' W 122°34'0 0.0
2018-Jul-05 04:29N 48°30' W 122°34'0 0.0
2018-Jul-05 03:59N 48°30' W 122°34'0 0.0
2018-Jul-05 03:29N 48°30' W 122°34'0 0.0
2018-Jul-05 02:59N 48°30' W 122°34'0 0.0
2018-Jul-05 02:23N 48°30' W 122°34'0 0.0
2018-Jul-05 01:59N 48°30' W 122°34'0 0.0
2018-Jul-05 01:29N 48°30' W 122°34'  

Dump ship's entire track history